createdAt,value
2019-01-04T00:00:32.137Z,28.67
2019-01-04T00:07:16.210Z,37.43
2019-01-04T00:14:00.289Z,32.53
2019-01-04T00:20:44.338Z,37.07
2019-01-04T00:27:28.402Z,32.43
2019-01-04T00:34:12.522Z,39.43
2019-01-04T00:40:56.674Z,36.53
2019-01-04T00:47:40.821Z,32.27
2019-01-04T00:54:28.494Z,27.97
2019-01-04T01:01:41.270Z,31.77
2019-01-04T01:10:39.641Z,34.53
2019-01-04T01:25:13.497Z,32.30
2019-01-04T01:32:07.386Z,33.23
2019-01-04T01:39:09.341Z,37.57
2019-01-04T01:46:05.093Z,31.37
2019-01-04T01:52:50.009Z,35.63
2019-01-04T01:59:34.937Z,36.90
2019-01-04T02:06:18.877Z,35.77
2019-01-04T02:13:02.826Z,39.30
2019-01-04T02:19:46.765Z,42.60
2019-01-04T02:26:30.710Z,40.20
2019-01-04T02:33:14.647Z,31.67
2019-01-04T02:39:58.591Z,31.17
2019-01-04T02:46:42.614Z,35.60
2019-01-04T02:53:26.553Z,42.17
2019-01-04T03:00:11.499Z,33.73
2019-01-04T03:06:55.444Z,32.97
2019-01-04T03:13:39.369Z,35.30
2019-01-04T03:20:23.302Z,36.80
2019-01-04T03:27:07.238Z,37.70
2019-01-04T03:33:51.196Z,42.47
2019-01-04T03:40:35.213Z,37.90
2019-01-04T03:47:19.158Z,35.03
2019-01-04T03:54:03.095Z,36.70
2019-01-04T04:00:48.001Z,35.30
2019-01-04T04:07:31.942Z,34.77
2019-01-04T04:14:15.890Z,35.40
2019-01-04T04:20:59.910Z,36.70
2019-01-04T04:27:43.852Z,38.63
2019-01-04T04:34:27.786Z,40.30
2019-01-04T04:41:11.733Z,35.60
2019-01-04T04:47:55.677Z,35.73
2019-01-04T04:54:39.617Z,37.10
2019-01-04T05:01:25.199Z,36.80
2019-01-04T05:08:09.139Z,43.17
2019-01-04T05:14:53.073Z,43.93
2019-01-04T05:21:37.013Z,37.77
2019-01-04T05:28:20.946Z,38.33
2019-01-04T05:35:04.913Z,37.93
2019-01-04T05:41:48.962Z,35.33
2019-01-04T05:48:32.900Z,36.40
2019-01-04T05:55:16.868Z,33.17
2019-01-04T06:02:03.849Z,40.30
2019-01-04T06:08:47.809Z,36.90
2019-01-04T06:15:31.752Z,34.80
2019-01-04T06:22:15.761Z,38.10
2019-01-04T06:29:00.226Z,41.33
2019-01-04T06:35:44.296Z,42.40
2019-01-04T06:42:28.237Z,42.33
2019-01-04T06:49:12.513Z,44.03
2019-01-04T06:56:01.718Z,39.53
2019-01-04T07:02:46.580Z,45.60
2019-01-04T07:09:30.524Z,39.07
2019-01-04T07:16:14.464Z,39.70
2019-01-04T07:22:58.429Z,41.60
2019-01-04T07:29:42.389Z,40.13
2019-01-04T07:36:26.339Z,40.97
2019-01-04T07:43:16.318Z,40.10
2019-01-04T07:49:54.225Z,41.83
2019-01-04T07:56:38.274Z,41.93
2019-01-04T08:03:25.794Z,38.50
2019-01-04T08:10:09.845Z,35.47
2019-01-04T08:16:53.789Z,33.53
2019-01-04T08:23:37.726Z,29.07
2019-01-04T08:30:21.856Z,31.87
2019-01-04T08:37:05.801Z,56.90
2019-01-04T08:43:49.744Z,30.90
2019-01-04T08:50:33.689Z,37.57
2019-01-04T08:57:17.633Z,35.33
2019-01-04T09:04:01.637Z,33.10
2019-01-04T09:10:45.590Z,28.67
2019-01-04T09:17:29.537Z,26.40
2019-01-04T09:24:13.498Z,26.40
2019-01-04T09:30:57.509Z,22.20
2019-01-04T09:37:41.462Z,23.53
2019-01-04T09:44:25.400Z,26.03
2019-01-04T09:51:09.677Z,24.03
2019-01-04T09:57:53.744Z,19.53
2019-01-04T10:04:37.678Z,24.60
2019-01-04T10:11:21.653Z,20.50
2019-01-04T10:18:05.806Z,25.07
2019-01-04T10:24:49.773Z,22.13
2019-01-04T10:31:33.759Z,19.33
2019-01-04T10:38:17.809Z,19.63
2019-01-04T10:45:01.824Z,21.50
2019-01-04T10:51:47.743Z,18.67
2019-01-04T10:58:31.681Z,25.17
2019-01-04T11:59:30.343Z,21.90
2019-01-04T12:06:14.313Z,15.93
2019-01-04T12:12:58.485Z,19.17
2019-01-04T12:19:42.425Z,20.57
2019-01-04T12:26:26.377Z,16.40
2019-01-04T12:33:10.326Z,22.43
2019-01-04T12:39:54.269Z,19.60
2019-01-04T12:46:38.214Z,20.10
2019-01-04T12:53:22.148Z,20.87
2019-01-04T13:00:07.532Z,23.47
2019-01-04T13:06:51.494Z,25.90
2019-01-04T13:13:35.446Z,17.13
2019-01-04T13:20:19.394Z,18.80
2019-01-04T13:27:03.338Z,17.23
2019-01-04T13:33:47.297Z,22.17
2019-01-04T13:40:31.238Z,17.00
2019-01-04T13:47:15.217Z,18.23
2019-01-04T13:53:59.168Z,17.60
2019-01-04T14:00:43.141Z,20.17
2019-01-04T14:07:27.222Z,20.83
2019-01-04T14:14:11.181Z,16.13
2019-01-04T14:20:55.125Z,18.43
2019-01-04T14:27:39.125Z,17.13
2019-01-04T14:34:23.105Z,19.73
2019-01-04T14:41:07.073Z,18.23
2019-01-04T14:47:51.009Z,18.77
2019-01-04T14:54:34.985Z,22.07
2019-01-04T15:01:18.959Z,28.23
2019-01-04T15:08:02.941Z,17.00
2019-01-04T15:14:46.924Z,16.10
2019-01-04T15:21:30.832Z,14.73
2019-01-04T15:28:14.772Z,16.00
2019-01-04T15:34:58.794Z,14.70
2019-01-04T15:41:42.747Z,19.33
2019-01-04T15:48:26.686Z,16.13
2019-01-04T15:55:10.717Z,19.03
2019-01-04T16:01:54.674Z,16.30
2019-01-04T16:08:38.668Z,15.33
2019-01-04T16:15:22.628Z,16.40
2019-01-04T16:22:06.577Z,17.27
2019-01-04T16:28:50.525Z,16.90
2019-01-04T16:35:34.504Z,20.63
2019-01-04T16:42:18.461Z,21.47
2019-01-04T16:49:02.410Z,17.47
2019-01-04T16:55:46.353Z,15.43
2019-01-04T17:02:30.307Z,19.20
2019-01-04T17:09:14.274Z,18.60
2019-01-04T17:15:58.258Z,20.03
2019-01-04T17:22:42.213Z,16.90
2019-01-04T17:29:26.190Z,15.67
2019-01-04T17:36:14.105Z,18.60
2019-01-04T17:42:58.402Z,16.50
2019-01-04T17:49:42.845Z,14.20
2019-01-04T17:56:26.881Z,18.67
2019-01-04T18:03:10.845Z,17.80
2019-01-04T18:09:54.941Z,14.47
2019-01-04T18:16:38.976Z,15.50
2019-01-04T18:23:22.937Z,13.77
2019-01-04T18:30:08.777Z,17.43
2019-01-04T18:36:52.842Z,16.80
2019-01-04T18:43:36.872Z,15.70
2019-01-04T18:50:23.046Z,18.13
2019-01-04T18:57:07.018Z,15.43
2019-01-04T19:03:51.027Z,14.70
2019-01-04T19:10:34.981Z,14.40
2019-01-04T19:17:18.922Z,13.03
2019-01-04T19:24:03.331Z,18.20
2019-01-04T19:30:47.313Z,19.47
2019-01-04T19:37:31.334Z,16.03
2019-01-04T19:44:15.313Z,16.43
2019-01-04T19:50:59.381Z,18.13
2019-01-04T19:57:43.436Z,15.57
2019-01-04T20:04:27.505Z,17.20
2019-01-04T20:12:27.299Z,19.43
2019-01-04T20:19:48.909Z,18.30
2019-01-04T20:26:57.249Z,18.00
2019-01-04T20:33:53.453Z,21.10
2019-01-04T20:40:41.797Z,17.37
2019-01-04T20:47:31.857Z,26.47
2019-01-04T20:54:21.281Z,18.07
2019-01-04T21:03:14.505Z,18.60
2019-01-04T21:12:04.829Z,17.83
2019-01-04T21:18:53.997Z,17.77
2019-01-04T21:25:45.965Z,19.73
2019-01-04T21:32:43.995Z,21.10
2019-01-04T21:41:34.236Z,24.53
2019-01-04T21:48:23.538Z,20.77
2019-01-04T21:55:14.765Z,22.20
2019-01-04T22:03:01.814Z,19.90
2019-01-04T22:11:56.493Z,20.93
2019-01-04T22:20:49.109Z,18.70
2019-01-04T22:29:42.542Z,18.10
2019-01-04T22:36:31.646Z,18.47
2019-01-04T22:43:55.174Z,18.43
2019-01-04T22:50:44.533Z,18.90
2019-01-04T22:57:37.736Z,19.73
2019-01-04T23:04:26.958Z,17.93
2019-01-04T23:11:16.241Z,21.37
2019-01-04T23:19:03.989Z,17.87
2019-01-04T23:26:00.106Z,17.57
2019-01-04T23:32:48.516Z,14.10
2019-01-04T23:39:43.709Z,17.47
2019-01-04T23:46:34.765Z,15.50
2019-01-04T23:55:26.111Z,13.37
